createdAt,value
2023-05-09T00:08:47.206Z,99901.38
2023-05-09T00:18:25.363Z,99898.05
2023-05-09T00:28:00.581Z,99893.94
2023-05-09T00:37:31.435Z,99874.77
2023-05-09T00:47:03.785Z,99871.24
2023-05-09T00:56:37.426Z,99863.72
2023-05-09T01:06:10.786Z,99860.61
2023-05-09T01:15:48.510Z,99836.25
2023-05-09T01:25:27.348Z,99832.11
2023-05-09T01:34:55.710Z,99828.53
2023-05-09T01:44:29.162Z,99821.84
2023-05-09T01:54:07.075Z,99834.23
2023-05-09T02:03:41.862Z,99823.09
2023-05-09T02:13:12.426Z,99821.62
2023-05-09T02:22:44.294Z,99815.69
2023-05-09T02:32:19.957Z,99810.47
2023-05-09T02:41:52.384Z,99803.40
2023-05-09T02:51:26.399Z,99795.14
2023-05-09T03:01:01.072Z,99790.82
2023-05-09T03:10:40.967Z,99787.13
2023-05-09T03:20:11.935Z,99796.82
2023-05-09T03:29:45.735Z,99788.79
2023-05-09T03:39:19.392Z,99775.78
2023-05-09T03:49:02.357Z,99750.32
2023-05-09T03:58:30.783Z,99750.94
2023-05-09T04:08:03.587Z,99753.41
2023-05-09T04:17:39.202Z,99761.13
2023-05-09T04:27:13.250Z,99759.44
2023-05-09T04:36:47.326Z,99758.25
2023-05-09T04:46:20.242Z,99738.71
2023-05-09T04:55:56.448Z,99735.19
2023-05-09T05:05:30.090Z,99724.03
2023-05-09T05:15:06.345Z,99712.43
2023-05-09T05:24:41.013Z,99715.84
2023-05-09T05:34:14.271Z,99706.73
2023-05-09T05:43:52.889Z,99713.27
2023-05-09T05:44:54.898Z,99712.75
2023-05-09T05:54:28.861Z,99708.51
2023-05-09T06:04:03.260Z,99702.86
2023-05-09T06:05:05.569Z,99705.13
2023-05-09T06:14:39.059Z,99706.50
2023-05-09T06:15:43.199Z,99702.21
2023-05-09T06:16:45.535Z,99698.08
2023-05-09T06:17:48.041Z,99698.44
2023-05-09T06:18:50.548Z,99693.38
2023-05-09T06:19:53.116Z,99692.08
2023-05-09T06:29:25.847Z,99689.22
2023-05-09T06:30:28.578Z,99693.22
2023-05-09T06:31:32.507Z,99691.39
2023-05-09T06:32:34.885Z,99688.41
2023-05-09T06:33:37.302Z,99693.92
2023-05-09T06:34:41.367Z,99690.05
2023-05-09T06:35:45.336Z,99691.76
2023-05-09T06:45:18.307Z,99673.77
2023-05-09T06:46:20.478Z,99671.33
2023-05-09T06:47:24.562Z,99669.27
2023-05-09T06:48:26.857Z,99666.38
2023-05-09T06:49:29.332Z,99661.48
2023-05-09T06:50:32.854Z,99656.03
2023-05-09T06:51:35.896Z,99653.75
2023-05-09T06:52:39.839Z,99658.89
2023-05-09T06:53:42.139Z,99658.18
2023-05-09T06:54:46.210Z,99656.19
2023-05-09T06:55:50.145Z,99657.52
2023-05-09T06:56:54.094Z,99653.22
2023-05-09T06:57:56.431Z,99653.52
2023-05-09T06:58:58.891Z,99655.41
2023-05-09T07:00:01.372Z,99651.60
2023-05-09T07:01:03.819Z,99652.91
2023-05-09T07:02:06.388Z,99656.66
2023-05-09T07:03:08.773Z,99654.58
2023-05-09T07:04:11.270Z,99656.11
2023-05-09T07:05:15.554Z,99654.25
2023-05-09T07:06:17.680Z,99648.16
2023-05-09T07:07:21.681Z,99652.97
2023-05-09T07:08:24.046Z,99650.81
2023-05-09T07:09:26.568Z,99648.73
2023-05-09T07:10:29.016Z,99646.16
2023-05-09T07:11:31.487Z,99648.20
2023-05-09T07:12:33.981Z,99650.58
2023-05-09T07:13:36.466Z,99645.38
2023-05-09T07:14:38.955Z,99644.30
2023-05-09T07:15:42.807Z,99641.49
2023-05-09T07:16:43.939Z,99638.74
2023-05-09T07:17:47.986Z,99637.17
2023-05-09T07:18:50.331Z,99635.11
2023-05-09T07:19:54.399Z,99632.91
2023-05-09T07:20:56.744Z,99633.52
2023-05-09T07:30:31.165Z,99633.56
2023-05-09T07:31:37.303Z,99628.89
2023-05-09T07:32:37.626Z,99627.25
2023-05-09T07:33:41.682Z,99627.33
2023-05-09T07:34:45.655Z,99622.73
2023-05-09T07:35:47.983Z,99624.27
2023-05-09T07:36:50.478Z,99628.45
2023-05-09T07:37:54.533Z,99623.88
2023-05-09T07:38:59.461Z,99625.22
2023-05-09T07:40:03.317Z,99621.45
2023-05-09T07:41:07.259Z,99615.64
2023-05-09T07:42:11.193Z,99612.27
2023-05-09T07:43:15.118Z,99610.44
2023-05-09T07:44:17.450Z,99609.08
2023-05-09T07:45:21.265Z,99604.65
2023-05-09T07:46:23.963Z,99603.97
2023-05-09T07:47:27.968Z,99599.89
2023-05-09T07:48:30.183Z,99598.72
2023-05-09T07:49:34.254Z,99598.14
2023-05-09T07:50:36.603Z,99598.60
2023-05-09T07:51:40.694Z,99597.97
2023-05-09T07:52:44.641Z,99599.62
2023-05-09T07:53:48.540Z,99600.05
2023-05-09T07:54:52.419Z,99596.05
2023-05-09T07:55:54.765Z,99598.73
2023-05-09T07:56:58.818Z,99595.16
2023-05-09T07:58:01.112Z,99595.55
2023-05-09T07:59:05.220Z,99592.81
2023-05-09T08:00:07.516Z,99587.27
2023-05-09T08:01:10.044Z,99590.33
2023-05-09T08:02:14.182Z,99585.36
2023-05-09T08:03:16.535Z,99587.02
2023-05-09T08:04:20.512Z,99587.75
2023-05-09T08:05:24.414Z,99582.20
2023-05-09T08:06:26.746Z,99580.70
2023-05-09T08:07:30.776Z,99573.02
2023-05-09T08:08:33.155Z,99572.34
2023-05-09T08:09:35.584Z,99573.59
2023-05-09T08:10:38.036Z,99575.44
2023-05-09T08:11:42.187Z,99574.59
2023-05-09T08:12:46.231Z,99571.95
2023-05-09T08:13:50.204Z,99573.23
2023-05-09T08:14:52.518Z,99569.27
2023-05-09T08:15:55.115Z,99581.63
2023-05-09T08:16:59.089Z,99577.84
2023-05-09T08:18:01.426Z,99574.88
2023-05-09T08:19:03.972Z,99570.08
2023-05-09T08:20:06.455Z,99571.23
2023-05-09T08:21:08.886Z,99572.66
2023-05-09T08:22:11.331Z,99566.58
2023-05-09T08:23:13.858Z,99568.70
2023-05-09T08:24:16.326Z,99563.48
2023-05-09T08:25:18.759Z,99564.70
2023-05-09T08:26:22.847Z,99562.88
2023-05-09T08:27:26.825Z,99570.66
2023-05-09T08:28:30.757Z,99568.48
2023-05-09T08:29:33.108Z,99566.64
2023-05-09T08:30:35.598Z,99565.67
2023-05-09T08:31:39.706Z,99560.59
2023-05-09T08:32:42.034Z,99556.75
2023-05-09T08:33:46.107Z,99557.13
2023-05-09T08:34:50.237Z,99558.71
2023-05-09T08:35:54.199Z,99554.67
2023-05-09T08:36:58.162Z,99555.02
2023-05-09T08:38:00.486Z,99558.52
2023-05-09T08:39:02.969Z,99555.26
2023-05-09T08:40:05.425Z,99551.81
2023-05-09T08:41:09.495Z,99552.73
2023-05-09T08:42:13.419Z,99553.19
2023-05-09T08:43:17.347Z,99551.57
2023-05-09T08:44:19.695Z,99552.91
2023-05-09T08:45:23.787Z,99552.53
2023-05-09T08:46:27.791Z,99554.64
2023-05-09T08:47:31.576Z,99551.25
2023-05-09T08:48:35.920Z,99550.13
2023-05-09T08:49:36.373Z,99548.19
2023-05-09T08:50:40.454Z,99549.19
2023-05-09T08:51:44.434Z,99543.73
2023-05-09T08:52:48.346Z,99543.17
2023-05-09T08:53:50.623Z,99544.05
2023-05-09T08:54:53.092Z,99538.91
2023-05-09T08:55:55.858Z,99537.22
2023-05-09T08:56:59.619Z,99538.61
2023-05-09T08:58:03.636Z,99545.13
2023-05-09T08:59:06.010Z,99540.55
2023-05-09T09:00:10.067Z,99539.69
2023-05-09T09:01:12.418Z,99538.78
2023-05-09T09:02:14.887Z,99537.46
2023-05-09T09:03:17.381Z,99539.12
2023-05-09T09:04:21.458Z,99540.00
2023-05-09T09:05:40.516Z,99535.63
2023-05-09T09:06:29.316Z,99537.48
2023-05-09T09:07:31.638Z,99532.94
2023-05-09T09:08:35.766Z,99535.61
2023-05-09T09:09:38.117Z,99536.08
2023-05-09T09:10:40.575Z,99536.19
2023-05-09T09:11:43.057Z,99535.04
2023-05-09T09:12:49.474Z,99541.07
2023-05-09T09:13:51.144Z,99532.70
2023-05-09T09:14:53.484Z,99535.91
2023-05-09T09:15:55.966Z,99532.80
2023-05-09T09:17:00.398Z,99533.78
2023-05-09T09:18:02.570Z,99532.91
2023-05-09T09:19:06.590Z,99529.28
2023-05-09T09:28:38.643Z,99520.69
2023-05-09T09:29:41.039Z,99520.84
2023-05-09T09:30:43.532Z,99517.96
2023-05-09T09:31:47.690Z,99516.12
2023-05-09T09:32:51.623Z,99512.14
2023-05-09T09:33:53.937Z,99514.72
2023-05-09T09:34:56.447Z,99510.68
2023-05-09T09:36:00.560Z,99513.02
2023-05-09T09:37:02.951Z,99507.82
2023-05-09T09:38:05.449Z,99509.25
2023-05-09T09:39:09.476Z,99505.30
2023-05-09T09:40:13.657Z,99503.72
2023-05-09T09:41:15.804Z,99495.58
2023-05-09T09:42:18.289Z,99500.78
2023-05-09T09:43:20.731Z,99496.52
2023-05-09T09:44:24.840Z,99496.93
2023-05-09T09:45:27.290Z,99490.28
2023-05-09T09:46:29.743Z,99490.84
2023-05-09T09:47:32.270Z,99488.08
2023-05-09T09:48:34.704Z,99482.41
2023-05-09T09:49:38.789Z,99484.70
2023-05-09T09:50:42.733Z,99482.88
2023-05-09T09:51:45.092Z,99480.72
2023-05-09T10:07:44.562Z,99457.35
2023-05-09T10:08:46.940Z,99456.88
2023-05-09T10:09:49.476Z,99452.88
2023-05-09T10:10:53.561Z,99455.41
2023-05-09T10:11:57.527Z,99452.85
2023-05-09T10:12:59.894Z,99454.67
2023-05-09T10:14:02.381Z,99450.44
2023-05-09T10:15:04.861Z,99449.82
2023-05-09T10:16:09.094Z,99445.83
2023-05-09T10:17:11.342Z,99443.95
2023-05-09T10:18:15.459Z,99442.94
2023-05-09T10:19:17.670Z,99438.39
2023-05-09T10:20:21.798Z,99443.61
2023-05-09T10:21:26.810Z,99433.05
2023-05-09T10:22:30.706Z,99435.16
2023-05-09T10:23:34.771Z,99435.09
2023-05-09T10:24:37.067Z,99431.84
2023-05-09T10:25:39.610Z,99430.66
2023-05-09T10:26:42.128Z,99430.32
2023-05-09T10:27:46.203Z,99431.83
2023-05-09T10:28:48.615Z,99431.56
2023-05-09T10:29:51.190Z,99427.98
2023-05-09T10:30:53.656Z,99425.44
2023-05-09T10:31:56.166Z,99424.74
2023-05-09T10:32:58.688Z,99418.13
2023-05-09T10:34:01.172Z,99411.72
2023-05-09T10:35:05.425Z,99413.70
2023-05-09T10:36:07.736Z,99410.50
2023-05-09T10:37:10.249Z,99410.93
2023-05-09T10:38:12.720Z,99410.94
2023-05-09T10:39:15.311Z,99408.98
2023-05-09T10:40:19.798Z,99408.88
2023-05-09T10:41:23.988Z,99404.31
2023-05-09T10:42:26.119Z,99403.02
2023-05-09T10:43:28.579Z,99404.73
2023-05-09T10:44:31.051Z,99401.39
2023-05-09T10:45:33.584Z,99403.30
2023-05-09T10:46:36.164Z,99394.73
2023-05-09T10:47:38.618Z,99394.06
2023-05-09T10:48:42.623Z,99391.13
2023-05-09T10:49:45.113Z,99392.09
2023-05-09T10:50:47.580Z,99393.81
2023-05-09T10:51:50.102Z,99393.09
2023-05-09T10:52:54.120Z,99391.72
2023-05-09T10:53:56.539Z,99387.67
2023-05-09T10:55:00.653Z,99385.58
2023-05-09T10:56:04.608Z,99384.76
2023-05-09T10:57:07.095Z,99386.19
2023-05-09T10:58:09.528Z,99382.02
2023-05-09T10:59:13.758Z,99381.26
2023-05-09T11:00:16.064Z,99375.63
2023-05-09T11:01:18.560Z,99375.09
2023-05-09T11:02:21.134Z,99373.26
2023-05-09T11:03:25.231Z,99370.09
2023-05-09T11:04:29.100Z,99367.19
2023-05-09T11:05:31.437Z,99363.53
2023-05-09T11:06:35.570Z,99365.82
2023-05-09T11:07:37.894Z,99357.39
2023-05-09T11:08:41.977Z,99357.94
2023-05-09T11:09:45.935Z,99357.12
2023-05-09T11:10:48.256Z,99354.39
2023-05-09T11:11:50.828Z,99352.09
2023-05-09T11:12:54.408Z,99350.66
2023-05-09T11:13:55.791Z,99349.19
2023-05-09T11:14:59.881Z,99345.63
2023-05-09T11:16:02.246Z,99342.96
2023-05-09T11:17:04.727Z,99338.08
2023-05-09T11:18:07.307Z,99337.80
2023-05-09T11:19:09.760Z,99339.48
2023-05-09T11:20:12.280Z,99338.73
2023-05-09T11:21:14.721Z,99346.33
2023-05-09T11:22:17.250Z,99342.64
2023-05-09T11:23:19.784Z,99343.56
2023-05-09T11:24:22.230Z,99337.92
2023-05-09T11:25:24.730Z,99335.75
2023-05-09T11:26:27.285Z,99337.09
2023-05-09T11:27:31.392Z,99342.50
2023-05-09T11:28:35.330Z,99336.70
2023-05-09T11:29:39.275Z,99334.61
2023-05-09T11:30:43.203Z,99331.77
2023-05-09T11:31:47.186Z,99332.16
2023-05-09T11:32:51.199Z,99329.69
2023-05-09T11:33:53.402Z,99329.70
2023-05-09T11:34:55.885Z,99334.69
2023-05-09T11:35:59.982Z,99331.23
2023-05-09T11:37:02.360Z,99322.92
2023-05-09T11:38:04.834Z,99325.52
2023-05-09T11:39:08.905Z,99326.94
2023-05-09T11:40:12.854Z,99318.63
2023-05-09T11:41:15.184Z,99321.30
2023-05-09T11:42:17.654Z,99317.53
2023-05-09T11:43:21.811Z,99313.55
2023-05-09T11:44:24.142Z,99316.08
2023-05-09T11:45:28.250Z,99311.53
2023-05-09T11:46:30.712Z,99307.34
2023-05-09T11:47:33.103Z,99312.55
2023-05-09T11:48:35.575Z,99308.34
2023-05-09T11:49:38.011Z,99310.27
2023-05-09T11:50:42.093Z,99307.19
2023-05-09T11:51:44.442Z,99308.20
2023-05-09T11:52:46.920Z,99306.60
2023-05-09T11:53:49.428Z,99305.07
2023-05-09T11:54:53.506Z,99303.48
2023-05-09T11:55:57.450Z,99304.45
2023-05-09T11:57:01.430Z,99298.58
2023-05-09T11:58:03.767Z,99295.66
2023-05-09T11:59:07.832Z,99293.36
2023-05-09T12:00:10.251Z,99290.02
2023-05-09T12:01:12.743Z,99285.34
2023-05-09T12:02:15.244Z,99287.23
2023-05-09T12:03:17.758Z,99284.04
2023-05-09T12:04:21.779Z,99282.44
2023-05-09T12:05:24.122Z,99282.30
2023-05-09T12:06:26.669Z,99283.48
2023-05-09T12:07:29.212Z,99283.81
2023-05-09T12:08:33.237Z,99285.80
2023-05-09T12:09:37.231Z,99281.59
2023-05-09T12:10:39.658Z,99276.14
2023-05-09T12:11:42.161Z,99274.82
2023-05-09T12:12:46.158Z,99273.38
2023-05-09T12:13:48.538Z,99271.99
2023-05-09T12:14:51.021Z,99270.75
2023-05-09T12:15:53.504Z,99271.98
2023-05-09T12:16:57.578Z,99266.23
2023-05-09T12:17:59.890Z,99265.18
2023-05-09T12:19:04.019Z,99264.73
2023-05-09T12:20:06.341Z,99264.90
2023-05-09T12:21:10.439Z,99265.18
2023-05-09T12:22:14.409Z,99265.09
2023-05-09T12:23:16.768Z,99262.31
2023-05-09T12:24:19.245Z,99262.39
2023-05-09T12:25:23.326Z,99258.89
2023-05-09T12:26:25.713Z,99261.75
2023-05-09T12:27:28.160Z,99260.67
2023-05-09T12:28:32.231Z,99258.27
2023-05-09T12:29:34.577Z,99254.16
2023-05-09T12:30:37.075Z,99254.45
2023-05-09T12:31:41.210Z,99251.74
2023-05-09T12:32:43.672Z,99245.48
2023-05-09T12:33:47.665Z,99249.61
2023-05-09T12:34:49.980Z,99245.90
2023-05-09T12:35:54.600Z,99242.50
2023-05-09T12:36:56.375Z,99248.45
2023-05-09T12:37:58.827Z,99246.84
2023-05-09T12:39:02.903Z,99247.52
2023-05-09T12:40:06.873Z,99243.38
2023-05-09T12:41:18.552Z,99241.08
2023-05-09T12:42:11.712Z,99233.75
2023-05-09T12:43:16.038Z,99234.39
2023-05-09T12:44:18.350Z,99234.75
2023-05-09T12:45:20.846Z,99232.81
2023-05-09T12:46:23.444Z,99230.05
2023-05-09T12:47:25.910Z,99226.53
2023-05-09T12:48:28.328Z,99222.94
2023-05-09T12:49:30.851Z,99222.91
2023-05-09T12:50:33.295Z,99223.41
2023-05-09T12:51:35.821Z,99219.75
2023-05-09T12:52:46.883Z,99214.30
2023-05-09T12:53:40.783Z,99216.05
2023-05-09T12:54:43.261Z,99212.72
2023-05-09T12:55:47.388Z,99216.38
2023-05-09T12:56:51.319Z,99214.55
2023-05-09T12:57:55.272Z,99218.19
2023-05-09T12:58:57.597Z,99217.98
2023-05-09T13:00:00.056Z,99220.27
2023-05-09T13:01:04.281Z,99217.59
2023-05-09T13:02:06.494Z,99215.13
2023-05-09T13:03:09.082Z,99217.44
2023-05-09T13:04:13.180Z,99212.38
2023-05-09T13:05:17.116Z,99217.16
2023-05-09T13:06:19.271Z,99221.25
2023-05-09T13:07:21.737Z,99212.69
2023-05-09T13:08:24.260Z,99204.89
2023-05-09T13:09:28.330Z,99207.31
2023-05-09T13:10:32.264Z,99198.66
2023-05-09T13:11:36.198Z,99200.77
2023-05-09T13:12:40.150Z,99194.08
2023-05-09T13:13:44.079Z,99193.09
2023-05-09T13:14:46.579Z,99190.01
2023-05-09T13:15:48.935Z,99185.95
2023-05-09T13:16:51.452Z,99184.45
2023-05-09T13:17:53.967Z,99186.28
2023-05-09T13:18:57.984Z,99184.91
2023-05-09T13:20:01.982Z,99183.73
2023-05-09T13:21:04.314Z,99182.27
2023-05-09T13:22:06.859Z,99179.28
2023-05-09T13:23:10.898Z,99181.01
2023-05-09T13:24:14.840Z,99179.96
2023-05-09T13:25:17.220Z,99176.76
2023-05-09T13:26:21.270Z,99177.34
2023-05-09T13:27:23.589Z,99172.25
2023-05-09T13:28:26.087Z,99167.43
2023-05-09T13:29:28.505Z,99169.55
2023-05-09T13:30:31.030Z,99162.38
2023-05-09T13:31:33.509Z,99163.58
2023-05-09T13:32:35.965Z,99160.20
2023-05-09T13:33:38.646Z,99159.09
2023-05-09T13:34:40.913Z,99156.77
2023-05-09T13:35:43.424Z,99158.80
2023-05-09T13:36:47.490Z,99155.36
2023-05-09T13:37:51.430Z,99151.17
2023-05-09T13:38:55.410Z,99152.56
2023-05-09T13:39:57.772Z,99154.18
2023-05-09T13:41:01.834Z,99153.38
2023-05-09T13:42:04.191Z,99148.82
2023-05-09T13:43:06.620Z,99146.70
2023-05-09T13:44:10.718Z,99144.31
2023-05-09T13:45:13.199Z,99143.67
2023-05-09T13:46:15.600Z,99139.34
2023-05-09T13:47:18.023Z,99137.02
2023-05-09T13:48:22.110Z,99141.84
2023-05-09T13:49:24.474Z,99132.13
2023-05-09T13:50:26.942Z,99135.32
2023-05-09T13:51:29.433Z,99133.88
2023-05-09T13:52:31.951Z,99132.70
2023-05-09T13:53:35.033Z,99133.06
2023-05-09T13:54:38.580Z,99134.30
2023-05-09T13:55:40.890Z,99131.90
2023-05-09T13:56:43.466Z,99129.79
2023-05-09T13:57:47.503Z,99123.20
2023-05-09T13:58:49.929Z,99120.56
2023-05-09T13:59:54.003Z,99119.48
2023-05-09T14:00:56.356Z,99119.38
2023-05-09T14:01:58.852Z,99117.95
2023-05-09T14:03:02.973Z,99120.40
2023-05-09T14:04:05.273Z,99117.84
2023-05-09T14:05:07.713Z,99111.27
2023-05-09T14:06:10.204Z,99111.88
2023-05-09T14:07:14.335Z,99112.91
2023-05-09T14:08:16.674Z,99112.35
2023-05-09T14:09:20.743Z,99115.60
2023-05-09T14:10:23.100Z,99109.56
2023-05-09T14:11:27.198Z,99106.48
2023-05-09T14:12:29.595Z,99103.34
2023-05-09T14:13:33.645Z,99104.69
2023-05-09T14:14:36.021Z,99103.89
2023-05-09T14:15:40.175Z,99100.05
2023-05-09T14:16:44.069Z,99096.02
2023-05-09T14:17:46.423Z,99091.69
2023-05-09T14:18:48.893Z,99092.20
2023-05-09T14:19:52.968Z,99090.91
2023-05-09T14:20:55.352Z,99091.11
2023-05-09T14:21:59.365Z,99091.73
2023-05-09T14:23:01.728Z,99088.10
2023-05-09T14:24:05.784Z,99090.54
2023-05-09T14:25:08.179Z,99089.70
2023-05-09T14:26:10.620Z,99092.45
2023-05-09T14:27:13.080Z,99088.28
2023-05-09T14:28:17.241Z,99089.46
2023-05-09T14:29:19.543Z,99087.70
2023-05-09T14:30:22.015Z,99085.61
2023-05-09T14:31:24.502Z,99083.91
2023-05-09T14:32:26.952Z,99082.81
2023-05-09T14:33:29.425Z,99083.33
2023-05-09T14:34:31.965Z,99081.61
2023-05-09T14:35:34.581Z,99078.80
2023-05-09T14:36:37.028Z,99080.27
2023-05-09T14:37:39.466Z,99080.05
2023-05-09T14:38:41.932Z,99078.26
2023-05-09T14:39:46.010Z,99072.09
2023-05-09T14:40:50.026Z,99075.23
2023-05-09T14:41:54.005Z,99065.37
2023-05-09T14:42:56.396Z,99067.73
2023-05-09T14:43:58.891Z,99064.32
2023-05-09T14:45:02.957Z,99064.41
2023-05-09T14:46:07.053Z,99055.50
2023-05-09T14:47:09.505Z,99055.50
2023-05-09T14:48:12.719Z,99054.91
2023-05-09T14:49:15.928Z,99051.29
2023-05-09T14:50:18.315Z,99051.19
2023-05-09T14:51:20.734Z,99052.41
2023-05-09T14:52:24.876Z,99051.98
2023-05-09T14:53:27.210Z,99051.22
2023-05-09T14:54:31.291Z,99045.52
2023-05-09T14:55:33.647Z,99048.92
2023-05-09T14:56:37.684Z,99044.32
2023-05-09T14:57:41.648Z,99043.30
2023-05-09T14:58:43.975Z,99040.59
2023-05-09T14:59:48.057Z,99040.83
2023-05-09T15:00:50.444Z,99040.28
2023-05-09T15:01:54.493Z,99037.58
2023-05-09T15:02:56.914Z,99038.75
2023-05-09T15:03:59.341Z,99035.34
2023-05-09T15:05:01.806Z,99031.09
2023-05-09T15:06:04.297Z,99031.82
2023-05-09T15:07:08.410Z,99032.33
2023-05-09T15:08:10.807Z,99030.13
2023-05-09T15:09:14.829Z,99029.27
2023-05-09T15:10:19.086Z,99029.28
2023-05-09T15:11:23.975Z,99025.27
2023-05-09T15:12:25.275Z,99025.36
2023-05-09T15:13:29.557Z,99019.34
2023-05-09T15:14:33.363Z,99020.89
2023-05-09T15:15:35.667Z,99015.72
2023-05-09T15:16:38.209Z,99012.41
2023-05-09T15:17:40.697Z,99010.27
2023-05-09T15:18:43.176Z,99010.97
2023-05-09T15:19:45.713Z,99001.72
2023-05-09T15:20:49.847Z,99006.17
2023-05-09T15:21:52.237Z,98999.89
2023-05-09T15:22:54.751Z,98998.65
2023-05-09T15:23:57.221Z,98997.19
2023-05-09T15:24:59.718Z,98994.15
2023-05-09T15:26:02.184Z,98995.76
2023-05-09T15:27:04.637Z,98995.59
2023-05-09T15:28:07.130Z,98992.21
2023-05-09T15:29:09.539Z,98988.12
2023-05-09T15:30:13.798Z,98990.44
2023-05-09T15:31:15.996Z,98988.37
2023-05-09T15:32:18.432Z,98984.42
2023-05-09T15:33:22.548Z,98984.78
2023-05-09T15:34:24.899Z,98983.66
2023-05-09T15:35:28.980Z,98983.64
2023-05-09T15:36:31.404Z,98981.77
2023-05-09T15:37:35.883Z,98981.80
2023-05-09T15:38:39.449Z,98974.75
2023-05-09T15:39:41.752Z,98974.75
2023-05-09T15:40:44.214Z,98972.95
2023-05-09T15:41:48.266Z,98974.58
2023-05-09T15:42:50.612Z,98975.33
2023-05-09T15:43:53.086Z,98976.28
2023-05-09T15:44:55.565Z,98974.48
2023-05-09T15:45:59.733Z,98974.23
2023-05-09T15:47:02.054Z,98973.73
2023-05-09T15:48:04.599Z,98968.30
2023-05-09T15:49:07.122Z,98970.22
2023-05-09T15:50:09.582Z,98971.76
2023-05-09T15:51:12.087Z,98969.12
2023-05-09T15:52:16.208Z,98963.33
2023-05-09T15:53:18.532Z,98965.11
2023-05-09T15:54:21.042Z,98965.47
2023-05-09T15:55:23.506Z,98964.09
2023-05-09T15:56:27.628Z,98964.92
2023-05-09T15:57:31.654Z,98966.29
2023-05-09T15:58:33.990Z,98964.16
2023-05-09T15:59:38.050Z,98964.75
2023-05-09T16:00:40.569Z,98964.18
2023-05-09T16:01:43.058Z,98959.77
2023-05-09T16:02:47.172Z,98961.97
2023-05-09T16:03:49.602Z,98955.16
2023-05-09T16:04:53.532Z,98960.34
2023-05-09T16:05:55.867Z,98957.46
2023-05-09T16:07:00.058Z,98957.95
2023-05-09T16:08:02.376Z,98956.67
2023-05-09T16:09:04.847Z,98954.54
2023-05-09T16:10:09.017Z,98954.16
2023-05-09T16:11:14.397Z,98951.70
2023-05-09T16:12:19.244Z,98953.66
2023-05-09T16:13:25.509Z,98947.04
2023-05-09T16:14:27.658Z,98950.78
2023-05-09T16:15:31.714Z,98947.12
2023-05-09T16:16:35.770Z,98945.77
2023-05-09T16:17:39.670Z,98942.02
2023-05-09T16:18:41.989Z,98943.70
2023-05-09T16:19:44.495Z,98942.87
2023-05-09T16:20:48.612Z,98947.97
2023-05-09T16:21:51.124Z,98947.64
2023-05-09T16:22:55.118Z,98943.13
2023-05-09T16:23:57.535Z,98941.39
2023-05-09T16:25:00.019Z,98944.34
2023-05-09T16:26:02.495Z,98945.45
2023-05-09T16:27:06.575Z,98941.78
2023-05-09T16:28:10.502Z,98943.48
2023-05-09T16:29:14.494Z,98945.84
2023-05-09T16:30:17.217Z,98942.22
2023-05-09T16:31:19.354Z,98941.88
2023-05-09T16:32:23.374Z,98940.92
2023-05-09T16:33:25.728Z,98936.32
2023-05-09T16:34:28.248Z,98937.15
2023-05-09T16:35:30.766Z,98938.42
2023-05-09T16:36:33.247Z,98937.20
2023-05-09T16:37:35.839Z,98935.16
2023-05-09T16:38:38.262Z,98936.84
2023-05-09T16:39:40.766Z,98937.20
2023-05-09T16:40:44.847Z,98933.30
2023-05-09T16:41:48.781Z,98930.56
2023-05-09T16:42:52.689Z,98929.73
2023-05-09T16:43:55.047Z,98930.38
2023-05-09T16:44:59.167Z,98930.30
2023-05-09T16:46:01.493Z,98932.25
2023-05-09T16:47:05.543Z,98928.45
2023-05-09T16:48:07.969Z,98928.95
2023-05-09T16:49:11.988Z,98928.61
2023-05-09T16:50:14.381Z,98928.73
2023-05-09T16:51:18.397Z,98928.00
2023-05-09T16:52:20.755Z,98929.36
2023-05-09T16:53:26.401Z,98929.41
2023-05-09T16:54:27.344Z,98935.28
2023-05-09T16:55:31.384Z,98936.21
2023-05-09T16:56:33.736Z,98939.08
2023-05-09T16:57:36.188Z,98940.36
2023-05-09T16:58:38.650Z,98940.06
2023-05-09T16:59:41.141Z,98944.44
2023-05-09T17:00:45.276Z,98948.27
2023-05-09T17:01:49.147Z,98945.47
2023-05-09T17:02:51.588Z,98938.56
2023-05-09T17:03:54.117Z,98946.56
2023-05-09T17:04:56.574Z,98939.06
2023-05-09T17:06:00.709Z,98938.94
2023-05-09T17:07:04.589Z,98936.81
2023-05-09T17:08:06.881Z,98934.37
2023-05-09T17:09:10.917Z,98932.20
2023-05-09T17:10:15.047Z,98932.86
2023-05-09T17:11:18.820Z,98927.23
2023-05-09T17:12:22.792Z,98927.23
2023-05-09T17:13:25.103Z,98930.25
2023-05-09T17:14:29.210Z,98928.94
2023-05-09T17:15:31.560Z,98928.55
2023-05-09T17:16:35.288Z,98926.63
2023-05-09T17:17:36.493Z,98925.63
2023-05-09T17:18:40.564Z,98924.19
2023-05-09T17:19:42.892Z,98923.11
2023-05-09T17:20:45.390Z,98924.37
2023-05-09T17:21:47.920Z,98925.88
2023-05-09T17:22:50.362Z,98921.30
2023-05-09T17:23:52.828Z,98926.52
2023-05-09T17:24:55.303Z,98922.95
2023-05-09T17:25:59.354Z,98922.11
2023-05-09T17:27:01.677Z,98920.05
2023-05-09T17:28:04.133Z,98921.42
2023-05-09T17:29:06.616Z,98921.27
2023-05-09T17:30:10.705Z,98922.28
2023-05-09T17:39:41.229Z,98916.20
2023-05-09T17:40:45.297Z,98913.90
2023-05-09T17:41:49.283Z,98913.36
2023-05-09T17:42:53.257Z,98914.42
2023-05-09T17:43:55.554Z,98917.75
2023-05-09T17:44:59.617Z,98911.48
2023-05-09T17:46:03.533Z,98917.20
2023-05-09T17:47:07.497Z,98919.17
2023-05-09T17:48:09.899Z,98912.48
2023-05-09T17:49:14.163Z,98913.76
2023-05-09T17:58:44.315Z,98912.06
2023-05-09T17:59:48.470Z,98913.08
2023-05-09T18:09:19.759Z,98903.75
2023-05-09T18:10:22.295Z,98899.02
2023-05-09T18:11:26.440Z,98900.84
2023-05-09T18:12:30.416Z,98905.18
2023-05-09T18:13:34.377Z,98901.69
2023-05-09T18:14:38.355Z,98904.80
2023-05-09T18:15:42.266Z,98904.50
2023-05-09T18:16:44.585Z,98902.91
2023-05-09T18:17:47.089Z,98902.52
2023-05-09T18:27:21.057Z,98898.58
2023-05-09T18:28:23.506Z,98895.97
2023-05-09T18:29:26.021Z,98897.55
2023-05-09T18:38:59.464Z,98901.22
2023-05-09T18:48:33.759Z,98901.03
2023-05-09T18:58:08.062Z,98904.09
2023-05-09T19:18:28.233Z,98910.39
2023-05-09T19:28:02.492Z,98917.59
2023-05-09T19:37:37.094Z,98917.95
2023-05-09T19:47:11.376Z,98918.17
2023-05-09T19:56:45.971Z,98921.84
2023-05-09T20:06:20.240Z,98911.22
2023-05-09T20:15:54.705Z,98911.77
2023-05-09T20:25:30.847Z,98908.02
2023-05-09T20:35:03.774Z,98895.35
2023-05-09T20:44:39.727Z,98898.02
2023-05-09T20:54:14.230Z,98895.62
2023-05-09T21:03:47.014Z,98885.20
2023-05-09T21:13:21.495Z,98877.27
2023-05-09T21:22:57.376Z,98875.66
2023-05-09T21:32:31.609Z,98871.31
2023-05-09T21:42:05.819Z,98872.17
2023-05-09T21:51:38.867Z,98864.66
2023-05-09T22:01:13.322Z,98868.38
2023-05-09T22:10:47.570Z,98880.13
2023-05-09T22:20:22.168Z,98892.88
2023-05-09T22:29:57.806Z,98893.80
2023-05-09T22:39:29.514Z,98895.38
2023-05-09T22:49:05.231Z,98898.44
2023-05-09T22:58:37.393Z,98904.00
2023-05-09T23:08:11.562Z,98907.64
2023-05-09T23:17:46.011Z,98911.77
2023-05-09T23:27:19.911Z,98920.59
2023-05-09T23:36:55.930Z,98920.09
2023-05-09T23:46:29.689Z,98917.53
2023-05-09T23:56:02.176Z,98919.61
